sensor_id;sensor_type;location;lat;lon;timestamp;P1;durP1;ratioP1;P2;durP2;ratioP2
4200;SDS011;2114;50.398;8.814;2023-03-19T00:04:57;4.80;;;2.57;;
4200;SDS011;2114;50.398;8.814;2023-03-19T00:09:57;2.60;;;2.23;;
4200;SDS011;2114;50.398;8.814;2023-03-19T00:14:58;2.00;;;1.90;;
4200;SDS011;2114;50.398;8.814;2023-03-19T00:19:58;1.80;;;1.40;;
4200;SDS011;2114;50.398;8.814;2023-03-19T00:24:59;1.73;;;1.50;;
4200;SDS011;2114;50.398;8.814;2023-03-19T00:30:00;1.50;;;1.40;;
4200;SDS011;2114;50.398;8.814;2023-03-19T00:35:01;4.97;;;2.40;;
4200;SDS011;2114;50.398;8.814;2023-03-19T00:40:03;1.97;;;1.87;;
4200;SDS011;2114;50.398;8.814;2023-03-19T00:45:04;2.20;;;2.10;;
4200;SDS011;2114;50.398;8.814;2023-03-19T00:50:05;6.07;;;2.37;;
4200;SDS011;2114;50.398;8.814;2023-03-19T00:55:07;4.30;;;2.07;;
4200;SDS011;2114;50.398;8.814;2023-03-19T01:00:08;3.87;;;2.27;;
4200;SDS011;2114;50.398;8.814;2023-03-19T01:05:09;2.20;;;1.60;;
4200;SDS011;2114;50.398;8.814;2023-03-19T01:10:10;3.50;;;2.77;;
4200;SDS011;2114;50.398;8.814;2023-03-19T01:15:11;2.53;;;2.17;;
4200;SDS011;2114;50.398;8.814;2023-03-19T01:20:12;2.30;;;2.10;;
4200;SDS011;2114;50.398;8.814;2023-03-19T01:25:13;9.50;;;2.10;;
4200;SDS011;2114;50.398;8.814;2023-03-19T01:30:13;1.60;;;1.47;;
4200;SDS011;2114;50.398;8.814;2023-03-19T01:35:14;5.50;;;3.47;;
4200;SDS011;2114;50.398;8.814;2023-03-19T01:40:15;2.20;;;1.50;;
4200;SDS011;2114;50.398;8.814;2023-03-19T01:45:35;2.70;;;2.50;;
4200;SDS011;2114;50.398;8.814;2023-03-19T01:50:38;2.37;;;2.27;;
4200;SDS011;2114;50.398;8.814;2023-03-19T01:55:41;1.20;;;1.20;;
4200;SDS011;2114;50.398;8.814;2023-03-19T02:00:41;1.93;;;1.73;;
4200;SDS011;2114;50.398;8.814;2023-03-19T02:05:43;6.10;;;2.70;;
4200;SDS011;2114;50.398;8.814;2023-03-19T02:10:46;1.93;;;1.63;;
4200;SDS011;2114;50.398;8.814;2023-03-19T02:15:47;2.93;;;2.63;;
4200;SDS011;2114;50.398;8.814;2023-03-19T02:20:53;2.70;;;2.50;;
4200;SDS011;2114;50.398;8.814;2023-03-19T02:26:09;2.30;;;1.77;;
4200;SDS011;2114;50.398;8.814;2023-03-19T02:31:13;2.00;;;1.90;;
4200;SDS011;2114;50.398;8.814;2023-03-19T02:36:16;1.50;;;1.40;;
4200;SDS011;2114;50.398;8.814;2023-03-19T02:41:18;1.13;;;1.13;;
4200;SDS011;2114;50.398;8.814;2023-03-19T02:46:19;2.07;;;1.87;;
4200;SDS011;2114;50.398;8.814;2023-03-19T02:51:19;3.10;;;2.43;;
4200;SDS011;2114;50.398;8.814;2023-03-19T02:56:20;3.90;;;1.77;;
4200;SDS011;2114;50.398;8.814;2023-03-19T03:01:21;4.50;;;2.47;;
4200;SDS011;2114;50.398;8.814;2023-03-19T03:06:21;1.73;;;1.63;;
4200;SDS011;2114;50.398;8.814;2023-03-19T03:11:22;2.50;;;2.30;;
4200;SDS011;2114;50.398;8.814;2023-03-19T03:16:23;1.70;;;1.60;;
4200;SDS011;2114;50.398;8.814;2023-03-19T03:21:24;4.20;;;2.23;;
4200;SDS011;2114;50.398;8.814;2023-03-19T03:26:25;2.10;;;2.00;;
4200;SDS011;2114;50.398;8.814;2023-03-19T03:31:26;5.47;;;2.30;;
4200;SDS011;2114;50.398;8.814;2023-03-19T03:36:27;5.40;;;1.70;;
4200;SDS011;2114;50.398;8.814;2023-03-19T03:41:27;2.00;;;1.90;;
4200;SDS011;2114;50.398;8.814;2023-03-19T03:46:28;2.20;;;2.07;;
4200;SDS011;2114;50.398;8.814;2023-03-19T03:51:29;3.90;;;3.60;;
4200;SDS011;2114;50.398;8.814;2023-03-19T03:56:30;2.10;;;1.97;;
4200;SDS011;2114;50.398;8.814;2023-03-19T04:01:32;2.83;;;2.33;;
4200;SDS011;2114;50.398;8.814;2023-03-19T04:06:33;3.80;;;2.37;;
4200;SDS011;2114;50.398;8.814;2023-03-19T04:11:34;1.97;;;1.80;;
4200;SDS011;2114;50.398;8.814;2023-03-19T04:16:35;1.57;;;1.40;;
4200;SDS011;2114;50.398;8.814;2023-03-19T04:21:36;2.13;;;1.97;;
4200;SDS011;2114;50.398;8.814;2023-03-19T04:26:37;2.10;;;1.80;;
4200;SDS011;2114;50.398;8.814;2023-03-19T04:31:38;1.67;;;1.60;;
4200;SDS011;2114;50.398;8.814;2023-03-19T04:36:38;1.50;;;1.40;;
4200;SDS011;2114;50.398;8.814;2023-03-19T04:41:39;1.77;;;1.67;;
4200;SDS011;2114;50.398;8.814;2023-03-19T04:46:39;2.47;;;2.17;;
4200;SDS011;2114;50.398;8.814;2023-03-19T04:51:40;5.93;;;2.10;;
4200;SDS011;2114;50.398;8.814;2023-03-19T04:56:41;1.67;;;1.57;;
4200;SDS011;2114;50.398;8.814;2023-03-19T05:01:42;7.17;;;1.33;;
4200;SDS011;2114;50.398;8.814;2023-03-19T05:06:42;3.50;;;2.20;;
4200;SDS011;2114;50.398;8.814;2023-03-19T05:11:43;3.40;;;1.70;;
4200;SDS011;2114;50.398;8.814;2023-03-19T05:16:44;1.77;;;1.67;;
4200;SDS011;2114;50.398;8.814;2023-03-19T05:21:45;1.60;;;1.50;;
4200;SDS011;2114;50.398;8.814;2023-03-19T05:26:46;2.90;;;2.17;;
4200;SDS011;2114;50.398;8.814;2023-03-19T05:31:47;3.27;;;1.80;;
4200;SDS011;2114;50.398;8.814;2023-03-19T05:36:47;2.03;;;1.83;;
4200;SDS011;2114;50.398;8.814;2023-03-19T05:41:48;1.60;;;1.10;;
4200;SDS011;2114;50.398;8.814;2023-03-19T05:46:49;3.67;;;2.00;;
4200;SDS011;2114;50.398;8.814;2023-03-19T05:51:50;4.03;;;2.27;;
4200;SDS011;2114;50.398;8.814;2023-03-19T05:56:50;2.50;;;2.30;;
4200;SDS011;2114;50.398;8.814;2023-03-19T06:01:51;3.43;;;2.10;;
4200;SDS011;2114;50.398;8.814;2023-03-19T06:06:52;1.93;;;1.73;;
4200;SDS011;2114;50.398;8.814;2023-03-19T06:11:52;5.63;;;2.27;;
4200;SDS011;2114;50.398;8.814;2023-03-19T06:16:53;3.30;;;1.83;;
4200;SDS011;2114;50.398;8.814;2023-03-19T06:21:53;2.20;;;2.00;;
4200;SDS011;2114;50.398;8.814;2023-03-19T06:26:54;2.93;;;2.60;;
4200;SDS011;2114;50.398;8.814;2023-03-19T06:31:55;2.20;;;1.63;;
4200;SDS011;2114;50.398;8.814;2023-03-19T06:36:55;2.10;;;1.90;;
4200;SDS011;2114;50.398;8.814;2023-03-19T06:41:56;4.23;;;1.97;;
4200;SDS011;2114;50.398;8.814;2023-03-19T06:46:56;2.80;;;2.10;;
4200;SDS011;2114;50.398;8.814;2023-03-19T06:51:57;2.70;;;2.47;;
4200;SDS011;2114;50.398;8.814;2023-03-19T06:56:57;1.70;;;1.57;;
4200;SDS011;2114;50.398;8.814;2023-03-19T07:01:58;1.10;;;1.10;;
4200;SDS011;2114;50.398;8.814;2023-03-19T07:06:59;2.30;;;1.87;;
4200;SDS011;2114;50.398;8.814;2023-03-19T07:12:01;2.30;;;1.93;;
4200;SDS011;2114;50.398;8.814;2023-03-19T07:17:02;1.63;;;1.53;;
4200;SDS011;2114;50.398;8.814;2023-03-19T07:22:02;2.40;;;1.97;;
4200;SDS011;2114;50.398;8.814;2023-03-19T07:27:03;1.60;;;1.50;;
4200;SDS011;2114;50.398;8.814;2023-03-19T07:32:04;2.00;;;1.77;;
4200;SDS011;2114;50.398;8.814;2023-03-19T07:37:05;7.57;;;2.27;;
4200;SDS011;2114;50.398;8.814;2023-03-19T07:42:06;2.73;;;2.53;;
4200;SDS011;2114;50.398;8.814;2023-03-19T07:47:07;4.07;;;1.83;;
4200;SDS011;2114;50.398;8.814;2023-03-19T07:52:08;6.20;;;2.50;;
4200;SDS011;2114;50.398;8.814;2023-03-19T07:57:09;1.93;;;1.83;;
4200;SDS011;2114;50.398;8.814;2023-03-19T08:02:10;2.23;;;2.07;;
4200;SDS011;2114;50.398;8.814;2023-03-19T08:07:11;2.67;;;2.27;;
4200;SDS011;2114;50.398;8.814;2023-03-19T08:12:13;4.07;;;2.43;;
4200;SDS011;2114;50.398;8.814;2023-03-19T08:17:13;2.17;;;1.97;;
4200;SDS011;2114;50.398;8.814;2023-03-19T08:22:14;2.97;;;2.63;;
4200;SDS011;2114;50.398;8.814;2023-03-19T08:27:16;1.67;;;1.57;;
4200;SDS011;2114;50.398;8.814;2023-03-19T08:32:16;4.53;;;2.73;;
4200;SDS011;2114;50.398;8.814;2023-03-19T08:37:17;6.97;;;2.90;;
4200;SDS011;2114;50.398;8.814;2023-03-19T08:42:18;2.13;;;1.93;;
4200;SDS011;2114;50.398;8.814;2023-03-19T08:47:20;3.73;;;2.63;;
4200;SDS011;2114;50.398;8.814;2023-03-19T08:52:23;3.90;;;2.80;;
4200;SDS011;2114;50.398;8.814;2023-03-19T08:57:23;3.97;;;3.27;;
4200;SDS011;2114;50.398;8.814;2023-03-19T09:02:24;3.00;;;1.83;;
4200;SDS011;2114;50.398;8.814;2023-03-19T09:07:25;6.77;;;3.53;;
4200;SDS011;2114;50.398;8.814;2023-03-19T09:12:26;1.70;;;1.60;;
4200;SDS011;2114;50.398;8.814;2023-03-19T09:17:27;2.23;;;1.87;;
4200;SDS011;2114;50.398;8.814;2023-03-19T09:22:27;1.90;;;1.67;;
4200;SDS011;2114;50.398;8.814;2023-03-19T09:27:28;1.20;;;1.10;;
4200;SDS011;2114;50.398;8.814;2023-03-19T09:32:29;5.00;;;2.30;;
4200;SDS011;2114;50.398;8.814;2023-03-19T09:37:29;1.77;;;1.67;;
4200;SDS011;2114;50.398;8.814;2023-03-19T09:47:35;2.43;;;1.87;;
4200;SDS011;2114;50.398;8.814;2023-03-19T09:52:45;4.67;;;2.20;;
4200;SDS011;2114;50.398;8.814;2023-03-19T09:57:56;1.97;;;1.83;;
4200;SDS011;2114;50.398;8.814;2023-03-19T10:18:53;1.37;;;1.30;;
4200;SDS011;2114;50.398;8.814;2023-03-19T10:24:08;1.50;;;1.40;;
4200;SDS011;2114;50.398;8.814;2023-03-19T10:29:19;5.80;;;1.57;;
4200;SDS011;2114;50.398;8.814;2023-03-19T10:34:35;1.33;;;0.93;;
4200;SDS011;2114;50.398;8.814;2023-03-19T10:39:39;1.03;;;1.00;;
4200;SDS011;2114;50.398;8.814;2023-03-19T10:45:02;2.80;;;2.30;;
4200;SDS011;2114;50.398;8.814;2023-03-19T10:50:19;1.63;;;1.50;;
4200;SDS011;2114;50.398;8.814;2023-03-19T10:55:31;1.50;;;1.40;;
4200;SDS011;2114;50.398;8.814;2023-03-19T11:00:33;1.10;;;1.00;;
4200;SDS011;2114;50.398;8.814;2023-03-19T11:05:34;1.53;;;1.43;;
4200;SDS011;2114;50.398;8.814;2023-03-19T11:10:35;2.10;;;1.70;;
4200;SDS011;2114;50.398;8.814;2023-03-19T11:15:36;1.70;;;1.60;;
4200;SDS011;2114;50.398;8.814;2023-03-19T11:20:37;1.60;;;1.50;;
4200;SDS011;2114;50.398;8.814;2023-03-19T11:25:39;2.07;;;1.87;;
4200;SDS011;2114;50.398;8.814;2023-03-19T11:41:31;1.57;;;1.30;;
4200;SDS011;2114;50.398;8.814;2023-03-19T11:46:44;1.20;;;1.10;;
4200;SDS011;2114;50.398;8.814;2023-03-19T11:52:19;0.93;;;0.90;;
4200;SDS011;2114;50.398;8.814;2023-03-19T12:03:34;1.47;;;1.37;;
4200;SDS011;2114;50.398;8.814;2023-03-19T12:19:39;0.87;;;0.87;;
4200;SDS011;2114;50.398;8.814;2023-03-19T12:25:07;1.03;;;0.87;;
4200;SDS011;2114;50.398;8.814;2023-03-19T12:30:29;0.60;;;0.60;;
4200;SDS011;2114;50.398;8.814;2023-03-19T12:35:38;0.87;;;0.87;;
4200;SDS011;2114;50.398;8.814;2023-03-19T12:40:42;0.90;;;0.90;;
4200;SDS011;2114;50.398;8.814;2023-03-19T12:46:00;0.80;;;0.80;;
4200;SDS011;2114;50.398;8.814;2023-03-19T12:51:08;2.50;;;1.20;;
4200;SDS011;2114;50.398;8.814;2023-03-19T12:56:16;1.30;;;1.20;;
4200;SDS011;2114;50.398;8.814;2023-03-19T13:01:32;1.23;;;1.17;;
4200;SDS011;2114;50.398;8.814;2023-03-19T13:07:00;1.77;;;1.67;;
4200;SDS011;2114;50.398;8.814;2023-03-19T13:12:24;1.30;;;1.30;;
4200;SDS011;2114;50.398;8.814;2023-03-19T13:17:30;0.83;;;0.83;;
4200;SDS011;2114;50.398;8.814;2023-03-19T13:22:40;1.00;;;0.90;;
4200;SDS011;2114;50.398;8.814;2023-03-19T13:27:51;1.13;;;1.00;;
4200;SDS011;2114;50.398;8.814;2023-03-19T13:33:02;1.40;;;1.30;;
4200;SDS011;2114;50.398;8.814;2023-03-19T13:38:24;1.00;;;1.00;;
4200;SDS011;2114;50.398;8.814;2023-03-19T13:58:52;0.90;;;0.90;;
4200;SDS011;2114;50.398;8.814;2023-03-19T14:04:16;0.73;;;0.73;;
4200;SDS011;2114;50.398;8.814;2023-03-19T14:09:33;0.83;;;0.83;;
4200;SDS011;2114;50.398;8.814;2023-03-19T14:14:48;1.23;;;1.13;;
4200;SDS011;2114;50.398;8.814;2023-03-19T14:25:14;0.73;;;0.73;;
4200;SDS011;2114;50.398;8.814;2023-03-19T14:30:30;1.07;;;1.03;;
4200;SDS011;2114;50.398;8.814;2023-03-19T14:35:38;0.70;;;0.70;;
4200;SDS011;2114;50.398;8.814;2023-03-19T14:40:44;0.80;;;0.70;;
4200;SDS011;2114;50.398;8.814;2023-03-19T14:56:40;0.60;;;0.60;;
4200;SDS011;2114;50.398;8.814;2023-03-19T15:01:43;0.70;;;0.70;;
4200;SDS011;2114;50.398;8.814;2023-03-19T15:06:53;1.33;;;0.97;;
4200;SDS011;2114;50.398;8.814;2023-03-19T15:17:20;0.70;;;0.70;;
4200;SDS011;2114;50.398;8.814;2023-03-19T15:22:30;0.60;;;0.60;;
4200;SDS011;2114;50.398;8.814;2023-03-19T15:27:33;0.80;;;0.80;;
4200;SDS011;2114;50.398;8.814;2023-03-19T15:32:37;0.60;;;0.60;;
4200;SDS011;2114;50.398;8.814;2023-03-19T15:37:42;0.60;;;0.60;;
4200;SDS011;2114;50.398;8.814;2023-03-19T15:42:46;0.70;;;0.70;;
4200;SDS011;2114;50.398;8.814;2023-03-19T15:52:55;1.10;;;0.77;;
4200;SDS011;2114;50.398;8.814;2023-03-19T15:58:02;0.93;;;0.93;;
4200;SDS011;2114;50.398;8.814;2023-03-19T16:03:11;1.03;;;0.93;;
4200;SDS011;2114;50.398;8.814;2023-03-19T16:08:20;0.80;;;0.80;;
4200;SDS011;2114;50.398;8.814;2023-03-19T16:18:29;0.60;;;0.60;;
4200;SDS011;2114;50.398;8.814;2023-03-19T16:23:41;0.77;;;0.77;;
4200;SDS011;2114;50.398;8.814;2023-03-19T16:28:45;0.70;;;0.70;;
4200;SDS011;2114;50.398;8.814;2023-03-19T16:33:51;1.80;;;0.90;;
4200;SDS011;2114;50.398;8.814;2023-03-19T16:38:53;0.70;;;0.70;;
4200;SDS011;2114;50.398;8.814;2023-03-19T16:43:56;0.80;;;0.80;;
4200;SDS011;2114;50.398;8.814;2023-03-19T16:49:09;0.70;;;0.70;;
4200;SDS011;2114;50.398;8.814;2023-03-19T16:54:10;0.67;;;0.67;;
4200;SDS011;2114;50.398;8.814;2023-03-19T16:59:15;1.53;;;0.83;;
4200;SDS011;2114;50.398;8.814;2023-03-19T17:04:22;0.70;;;0.70;;
4200;SDS011;2114;50.398;8.814;2023-03-19T17:09:23;0.70;;;0.70;;
4200;SDS011;2114;50.398;8.814;2023-03-19T17:14:25;5.37;;;1.10;;
4200;SDS011;2114;50.398;8.814;2023-03-19T17:19:27;2.00;;;1.53;;
4200;SDS011;2114;50.398;8.814;2023-03-19T17:24:33;0.90;;;0.90;;
4200;SDS011;2114;50.398;8.814;2023-03-19T17:29:34;0.70;;;0.70;;
4200;SDS011;2114;50.398;8.814;2023-03-19T17:34:35;0.73;;;0.73;;
4200;SDS011;2114;50.398;8.814;2023-03-19T17:39:35;0.90;;;0.90;;
4200;SDS011;2114;50.398;8.814;2023-03-19T17:44:36;1.17;;;1.10;;
4200;SDS011;2114;50.398;8.814;2023-03-19T17:49:37;3.20;;;1.40;;
4200;SDS011;2114;50.398;8.814;2023-03-19T17:54:40;1.20;;;1.20;;
4200;SDS011;2114;50.398;8.814;2023-03-19T17:59:41;2.00;;;1.40;;
4200;SDS011;2114;50.398;8.814;2023-03-19T18:04:42;1.23;;;1.23;;
4200;SDS011;2114;50.398;8.814;2023-03-19T18:09:42;2.33;;;2.10;;
4200;SDS011;2114;50.398;8.814;2023-03-19T18:14:43;5.97;;;3.77;;
4200;SDS011;2114;50.398;8.814;2023-03-19T18:19:44;3.77;;;2.53;;
4200;SDS011;2114;50.398;8.814;2023-03-19T18:24:48;6.47;;;2.73;;
4200;SDS011;2114;50.398;8.814;2023-03-19T18:29:49;3.70;;;2.27;;
4200;SDS011;2114;50.398;8.814;2023-03-19T18:34:50;1.90;;;1.57;;
4200;SDS011;2114;50.398;8.814;2023-03-19T18:39:50;4.37;;;2.83;;
4200;SDS011;2114;50.398;8.814;2023-03-19T18:44:51;1.90;;;1.30;;
4200;SDS011;2114;50.398;8.814;2023-03-19T18:49:52;0.83;;;0.83;;
4200;SDS011;2114;50.398;8.814;2023-03-19T18:54:56;1.30;;;1.20;;
4200;SDS011;2114;50.398;8.814;2023-03-19T18:59:57;1.00;;;1.00;;
4200;SDS011;2114;50.398;8.814;2023-03-19T19:04:59;0.77;;;0.77;;
4200;SDS011;2114;50.398;8.814;2023-03-19T19:10:00;0.93;;;0.93;;
4200;SDS011;2114;50.398;8.814;2023-03-19T19:15:04;1.73;;;1.13;;
4200;SDS011;2114;50.398;8.814;2023-03-19T19:20:13;1.87;;;0.90;;
4200;SDS011;2114;50.398;8.814;2023-03-19T19:25:22;0.90;;;0.90;;
4200;SDS011;2114;50.398;8.814;2023-03-19T19:30:25;1.60;;;1.27;;
4200;SDS011;2114;50.398;8.814;2023-03-19T19:35:26;3.07;;;1.53;;
4200;SDS011;2114;50.398;8.814;2023-03-19T19:40:28;8.17;;;3.30;;
4200;SDS011;2114;50.398;8.814;2023-03-19T19:45:31;7.37;;;3.80;;
4200;SDS011;2114;50.398;8.814;2023-03-19T19:50:35;3.10;;;2.47;;
4200;SDS011;2114;50.398;8.814;2023-03-19T19:55:36;2.10;;;1.93;;
4200;SDS011;2114;50.398;8.814;2023-03-19T20:00:37;2.40;;;2.20;;
4200;SDS011;2114;50.398;8.814;2023-03-19T20:05:37;5.83;;;3.33;;
4200;SDS011;2114;50.398;8.814;2023-03-19T20:10:38;7.50;;;2.50;;
4200;SDS011;2114;50.398;8.814;2023-03-19T20:15:40;30.27;;;5.80;;
4200;SDS011;2114;50.398;8.814;2023-03-19T20:20:41;33.23;;;9.67;;
4200;SDS011;2114;50.398;8.814;2023-03-19T20:25:45;48.23;;;12.00;;
4200;SDS011;2114;50.398;8.814;2023-03-19T20:30:46;7.10;;;3.50;;
4200;SDS011;2114;50.398;8.814;2023-03-19T20:35:48;20.17;;;6.87;;
4200;SDS011;2114;50.398;8.814;2023-03-19T20:40:54;14.43;;;3.90;;
4200;SDS011;2114;50.398;8.814;2023-03-19T20:45:56;1.30;;;1.20;;
4200;SDS011;2114;50.398;8.814;2023-03-19T20:50:58;1.00;;;1.00;;
4200;SDS011;2114;50.398;8.814;2023-03-19T20:56:00;1.27;;;1.17;;
4200;SDS011;2114;50.398;8.814;2023-03-19T21:01:03;1.80;;;1.70;;
4200;SDS011;2114;50.398;8.814;2023-03-19T21:06:05;1.10;;;1.10;;
4200;SDS011;2114;50.398;8.814;2023-03-19T21:11:16;1.70;;;1.07;;
4200;SDS011;2114;50.398;8.814;2023-03-19T21:16:19;1.37;;;0.97;;
4200;SDS011;2114;50.398;8.814;2023-03-19T21:21:31;1.20;;;1.10;;
4200;SDS011;2114;50.398;8.814;2023-03-19T21:26:37;0.80;;;0.80;;
4200;SDS011;2114;50.398;8.814;2023-03-19T21:31:39;1.37;;;1.03;;
4200;SDS011;2114;50.398;8.814;2023-03-19T21:36:39;1.10;;;1.10;;
4200;SDS011;2114;50.398;8.814;2023-03-19T21:41:40;1.20;;;1.20;;
4200;SDS011;2114;50.398;8.814;2023-03-19T21:46:41;0.80;;;0.80;;
4200;SDS011;2114;50.398;8.814;2023-03-19T21:51:45;0.70;;;0.70;;
4200;SDS011;2114;50.398;8.814;2023-03-19T21:56:46;0.80;;;0.80;;
4200;SDS011;2114;50.398;8.814;2023-03-19T22:01:46;0.97;;;0.90;;
4200;SDS011;2114;50.398;8.814;2023-03-19T22:06:47;1.47;;;1.20;;
4200;SDS011;2114;50.398;8.814;2023-03-19T22:11:48;3.40;;;1.60;;
4200;SDS011;2114;50.398;8.814;2023-03-19T22:16:49;0.90;;;0.90;;
4200;SDS011;2114;50.398;8.814;2023-03-19T22:21:52;1.50;;;1.40;;
4200;SDS011;2114;50.398;8.814;2023-03-19T22:26:54;1.83;;;1.30;;
4200;SDS011;2114;50.398;8.814;2023-03-19T22:31:56;1.47;;;1.27;;
4200;SDS011;2114;50.398;8.814;2023-03-19T22:36:57;4.20;;;1.40;;
4200;SDS011;2114;50.398;8.814;2023-03-19T22:41:58;0.90;;;0.90;;
4200;SDS011;2114;50.398;8.814;2023-03-19T22:46:59;0.80;;;0.80;;
4200;SDS011;2114;50.398;8.814;2023-03-19T22:52:00;0.80;;;0.80;;
4200;SDS011;2114;50.398;8.814;2023-03-19T22:57:01;4.33;;;1.30;;
4200;SDS011;2114;50.398;8.814;2023-03-19T23:02:02;1.00;;;1.00;;
4200;SDS011;2114;50.398;8.814;2023-03-19T23:07:02;0.73;;;0.73;;
4200;SDS011;2114;50.398;8.814;2023-03-19T23:12:04;0.90;;;0.90;;
4200;SDS011;2114;50.398;8.814;2023-03-19T23:17:12;2.30;;;1.60;;
4200;SDS011;2114;50.398;8.814;2023-03-19T23:22:16;2.90;;;1.53;;
4200;SDS011;2114;50.398;8.814;2023-03-19T23:27:20;1.47;;;1.37;;
4200;SDS011;2114;50.398;8.814;2023-03-19T23:32:23;1.60;;;1.50;;
4200;SDS011;2114;50.398;8.814;2023-03-19T23:37:25;1.93;;;1.73;;
4200;SDS011;2114;50.398;8.814;2023-03-19T23:42:27;1.10;;;1.00;;
4200;SDS011;2114;50.398;8.814;2023-03-19T23:47:30;1.53;;;1.43;;
4200;SDS011;2114;50.398;8.814;2023-03-19T23:52:31;0.90;;;0.90;;
4200;SDS011;2114;50.398;8.814;2023-03-19T23:57:32;1.17;;;1.07;;
